world map with CYBU marked

CYBU - Airport

This information may not be accurate or current and is not valid for navigation or flight planning. No warranty of fitness for any purpose is made or implied.

flag of Saskatchewanflag of Canada

Donate via PayPal

Additional information is available on the NEW Great Circle Mapper

Location
City:  Nipawin, Saskatchewan, Canada
ICAO:CYBU

Details
Type:Airport (Airfield)
Latitude:53°19'57"N (53.332500)
Longitude:104°00'30"W (-104.008332)
Elevation:1220 ft (372 m)
Runways:2
Longest:2930 × 75 ft (893 × 23 m)

Time
Timezone:UTC+28:08 (DST+30:08)
Local Time:

Weather
METAR:CYBU  041400Z AUTO 02006KT 9SM OVC110 M29/M32 A3038 RMK SLP342

Related Locations
Nearby:
Farthest:YCSK: 10957 mi / 17633 km
Casey Station [Casey Station Skiway], Wilkes Land, AQ

Find:

   beyond  
but within

Other Information
Maps:
Sources:

  

Airport Diagram

Airport diagram for CYBU

Airport diagram PDF from NAV Canada

 


Great Circle Mapper   Great Circle Mapper
Great Circle Mapper FAQ   Great Circle Mapper FAQ
  Karl's Home Page
KLSē   KLSē Home
   GC on Facebook
Airlines of the World   Airlines of the World
Donate via PayPal


Copyright © 2004-2024, Karl L. Swartz. All rights reserved.
All trademarks mentioned herein belong to their respective owners.

Please see credits for attribution and copyright information.

Karl Swartz <karl@kls2.com>
  Powered by FreeBSD
Valid HTML 4.01!
Labeled with ICRA
hCard Microformat
Geo Microformat